ALBT28 YWLM-YWLM
Flight info
| Callsign | ALBT28 |
|---|---|
| Flight time | 1h 45m |
| Altitude | 40000 |
| Route | N0424F400 DCT WM310 DCT WM309 DCT WM308 DCT WM307 DCT WM305 DCT WM306 DCT WM313 DCT WM312 DCT NELSN DCT 324852S1521939E 325412S1521850E 325858S1521642E DCT ASUVA DCT 330634S1520944E DCT 330817S1520709E DCT |
| Aircraft | Q4/M-SDFGHIJ5KM1RTUWXYZ/LB101 |
Departure
| Time | 2026-04-29 08:26 |
|---|---|
| Airport | Newcastle Airport (YWLM) |
Arrival
| Time | 2026-04-29 10:11 |
|---|---|
| Airport | Newcastle Airport (YWLM) |
| Time | Latitude | Longitude | Altitude | Speed | Heading |
|---|---|---|---|---|---|
| 2026-04-29 08:15 | -32.79795 | 151.84236 | 29 ft | 0 kts | 360° |
| 2026-04-29 08:23 | -32.79786 | 151.84222 | 29 ft | 7 kts | 296° |
| 2026-04-29 08:23 | -32.79796 | 151.84129 | 32 ft | 17 kts | 242° |
| 2026-04-29 08:23 | -32.79732 | 151.83975 | 30 ft | 29 kts | 311° |
| 2026-04-29 08:23 | -32.79589 | 151.83772 | 28 ft | 34 kts | 311° |
| 2026-04-29 08:24 | -32.79432 | 151.83551 | 28 ft | 36 kts | 310° |
| 2026-04-29 08:24 | -32.79266 | 151.83318 | 30 ft | 37 kts | 309° |
| 2026-04-29 08:24 | -32.79110 | 151.83101 | 31 ft | 35 kts | 310° |
| 2026-04-29 08:24 | -32.78946 | 151.82873 | 28 ft | 38 kts | 311° |
| 2026-04-29 08:25 | -32.78781 | 151.82642 | 27 ft | 34 kts | 311° |
| 2026-04-29 08:25 | -32.78645 | 151.82452 | 27 ft | 28 kts | 309° |
| 2026-04-29 08:25 | -32.78681 | 151.82309 | 26 ft | 21 kts | 217° |
| 2026-04-29 08:25 | -32.78760 | 151.82326 | 27 ft | 6 kts | 128° |
| 2026-04-29 08:26 | -32.78822 | 151.82412 | 26 ft | 76 kts | 130° |
| 2026-04-29 08:26 | -32.79500 | 151.83356 | 323 ft | 200 kts | 129° |
| 2026-04-29 08:26 | -32.80596 | 151.84879 | 809 ft | 245 kts | 130° |
| 2026-04-29 08:26 | -32.81694 | 151.86341 | 1807 ft | 252 kts | 130° |
| 2026-04-29 08:27 | -32.82934 | 151.87957 | 2902 ft | 271 kts | 130° |
| 2026-04-29 08:27 | -32.84221 | 151.89615 | 4156 ft | 274 kts | 131° |
| 2026-04-29 08:27 | -32.85509 | 151.91291 | 5407 ft | 275 kts | 130° |
| 2026-04-29 08:27 | -32.86806 | 151.92978 | 6670 ft | 276 kts | 130° |
| 2026-04-29 08:28 | -32.88095 | 151.94666 | 7872 ft | 276 kts | 131° |
| 2026-04-29 08:28 | -32.89382 | 151.96361 | 9129 ft | 275 kts | 130° |
| 2026-04-29 08:28 | -32.90663 | 151.98045 | 10430 ft | 273 kts | 130° |
| 2026-04-29 08:28 | -32.91917 | 151.99697 | 11558 ft | 274 kts | 131° |
| 2026-04-29 08:29 | -32.93224 | 152.01426 | 12286 ft | 289 kts | 130° |
| 2026-04-29 08:29 | -32.94612 | 152.03263 | 12634 ft | 307 kts | 130° |
| 2026-04-29 08:29 | -32.96070 | 152.05199 | 12788 ft | 320 kts | 131° |
| 2026-04-29 08:29 | -32.97496 | 152.07098 | 12965 ft | 302 kts | 130° |
| 2026-04-29 08:30 | -32.98945 | 152.09027 | 12935 ft | 322 kts | 130° |
| 2026-04-29 08:30 | -33.01881 | 152.12951 | 14177 ft | 309 kts | 131° |
| 2026-04-29 08:30 | -33.03297 | 152.14854 | 14906 ft | 305 kts | 131° |
| 2026-04-29 08:31 | -33.04697 | 152.16744 | 15648 ft | 303 kts | 131° |
| 2026-04-29 08:31 | -33.06081 | 152.18624 | 16405 ft | 301 kts | 130° |
| 2026-04-29 08:31 | -33.07465 | 152.20502 | 17174 ft | 301 kts | 131° |
| 2026-04-29 08:31 | -33.08849 | 152.22392 | 17849 ft | 304 kts | 131° |
| 2026-04-29 08:32 | -33.10340 | 152.24161 | 18476 ft | 303 kts | 144° |
| 2026-04-29 08:32 | -33.12336 | 152.24923 | 19040 ft | 306 kts | 176° |
| 2026-04-29 08:32 | -33.14405 | 152.24398 | 19554 ft | 307 kts | 204° |
| 2026-04-29 08:32 | -33.16313 | 152.23253 | 20022 ft | 308 kts | 208° |
| 2026-04-29 08:33 | -33.18212 | 152.22049 | 20495 ft | 309 kts | 207° |
| 2026-04-29 08:33 | -33.20144 | 152.20918 | 20975 ft | 309 kts | 205° |
| 2026-04-29 08:33 | -33.22097 | 152.19850 | 21476 ft | 308 kts | 202° |
| 2026-04-29 08:33 | -33.24092 | 152.18989 | 21970 ft | 302 kts | 194° |
| 2026-04-29 08:34 | -33.26127 | 152.18356 | 22487 ft | 301 kts | 192° |
| 2026-04-29 08:34 | -33.28118 | 152.17603 | 22991 ft | 299 kts | 198° |
| 2026-04-29 08:34 | -33.30091 | 152.16823 | 23521 ft | 298 kts | 196° |
| 2026-04-29 08:34 | -33.32075 | 152.16102 | 24052 ft | 297 kts | 195° |
| 2026-04-29 08:35 | -33.34018 | 152.15385 | 24499 ft | 295 kts | 196° |
| 2026-04-29 08:35 | -33.35976 | 152.14646 | 24965 ft | 294 kts | 196° |
| 2026-04-29 08:35 | -33.37919 | 152.13916 | 25428 ft | 292 kts | 196° |
| 2026-04-29 08:35 | -33.39853 | 152.13201 | 25904 ft | 290 kts | 196° |
| 2026-04-29 08:36 | -33.41777 | 152.12481 | 26384 ft | 288 kts | 196° |
| 2026-04-29 08:36 | -33.43685 | 152.11762 | 26877 ft | 287 kts | 197° |
| 2026-04-29 08:36 | -33.45586 | 152.11055 | 27386 ft | 285 kts | 197° |
| 2026-04-29 08:36 | -33.47476 | 152.10348 | 27888 ft | 283 kts | 197° |
| 2026-04-29 08:37 | -33.49346 | 152.09645 | 28409 ft | 281 kts | 197° |
| 2026-04-29 08:37 | -33.50583 | 152.09183 | 28756 ft | 280 kts | 197° |
| 2026-04-29 08:37 | -33.52429 | 152.08489 | 29291 ft | 278 kts | 197° |
| 2026-04-29 08:37 | -33.54272 | 152.07801 | 29835 ft | 276 kts | 197° |
| 2026-04-29 08:38 | -33.56101 | 152.07114 | 30392 ft | 274 kts | 197° |
| 2026-04-29 08:38 | -33.57909 | 152.06434 | 30879 ft | 272 kts | 197° |
| 2026-04-29 08:38 | -33.59712 | 152.05763 | 31362 ft | 269 kts | 197° |
| 2026-04-29 08:38 | -33.61494 | 152.05092 | 31850 ft | 267 kts | 198° |
| 2026-04-29 08:39 | -33.63281 | 152.04420 | 32179 ft | 271 kts | 198° |
| 2026-04-29 08:39 | -33.65128 | 152.03891 | 32404 ft | 276 kts | 189° |
| 2026-04-29 08:39 | -33.67046 | 152.04190 | 32619 ft | 280 kts | 169° |
| 2026-04-29 08:39 | -33.68898 | 152.04916 | 32873 ft | 283 kts | 157° |
| 2026-04-29 08:40 | -33.70691 | 152.05921 | 33130 ft | 285 kts | 157° |
| 2026-04-29 08:40 | -33.72530 | 152.06818 | 33388 ft | 285 kts | 163° |
| 2026-04-29 08:40 | -33.74390 | 152.07663 | 33648 ft | 287 kts | 161° |
| 2026-04-29 08:40 | -33.76241 | 152.08595 | 33920 ft | 289 kts | 160° |
| 2026-04-29 08:41 | -33.78103 | 152.09502 | 34193 ft | 288 kts | 161° |
| 2026-04-29 08:41 | -33.79728 | 152.10875 | 34379 ft | 296 kts | 134° |
| 2026-04-29 08:41 | -33.80954 | 152.12860 | 34616 ft | 297 kts | 126° |
| 2026-04-29 08:41 | -33.81565 | 152.15243 | 34828 ft | 302 kts | 101° |
| 2026-04-29 08:42 | -33.81671 | 152.17763 | 35069 ft | 303 kts | 90° |
| 2026-04-29 08:42 | -33.81578 | 152.20307 | 35315 ft | 305 kts | 88° |
| 2026-04-29 08:42 | -33.81547 | 152.22850 | 35547 ft | 304 kts | 95° |
| 2026-04-29 08:42 | -33.81627 | 152.25395 | 35797 ft | 305 kts | 93° |
| 2026-04-29 08:43 | -33.81622 | 152.27954 | 36047 ft | 306 kts | 91° |
| 2026-04-29 08:43 | -33.81626 | 152.30519 | 36298 ft | 307 kts | 93° |
| 2026-04-29 08:43 | -33.81656 | 152.33084 | 36554 ft | 307 kts | 93° |
| 2026-04-29 08:43 | -33.81670 | 152.35661 | 36806 ft | 308 kts | 92° |
| 2026-04-29 08:44 | -33.81680 | 152.38235 | 37063 ft | 308 kts | 93° |
| 2026-04-29 08:44 | -33.81694 | 152.40810 | 37322 ft | 308 kts | 93° |
| 2026-04-29 08:44 | -33.81710 | 152.43382 | 37588 ft | 308 kts | 93° |
| 2026-04-29 08:44 | -33.81723 | 152.45958 | 37857 ft | 308 kts | 93° |
| 2026-04-29 08:45 | -33.81733 | 152.48538 | 38131 ft | 308 kts | 93° |
| 2026-04-29 08:45 | -33.81746 | 152.51083 | 38402 ft | 308 kts | 93° |
| 2026-04-29 08:45 | -33.81759 | 152.53653 | 38679 ft | 308 kts | 93° |
| 2026-04-29 08:45 | -33.81767 | 152.56230 | 38962 ft | 307 kts | 93° |
| 2026-04-29 08:46 | -33.81778 | 152.58806 | 39216 ft | 307 kts | 93° |
| 2026-04-29 08:46 | -33.81789 | 152.61377 | 39441 ft | 307 kts | 93° |
| 2026-04-29 08:46 | -33.81797 | 152.63946 | 39671 ft | 307 kts | 93° |
| 2026-04-29 08:46 | -33.81805 | 152.66512 | 39901 ft | 307 kts | 93° |
| 2026-04-29 08:47 | -33.81815 | 152.69075 | 40134 ft | 306 kts | 94° |
| 2026-04-29 08:47 | -33.81795 | 152.71644 | 40278 ft | 310 kts | 90° |
| 2026-04-29 08:47 | -33.81086 | 152.74111 | 40326 ft | 318 kts | 59° |
| 2026-04-29 08:48 | -33.78227 | 152.78141 | 40390 ft | 321 kts | 24° |
| 2026-04-29 08:48 | -33.74037 | 152.80066 | 40424 ft | 326 kts | 14° |
| 2026-04-29 08:49 | -33.69795 | 152.82017 | 40425 ft | 329 kts | 22° |
| 2026-04-29 08:49 | -33.67710 | 152.82984 | 40388 ft | 311 kts | 7° |
| 2026-04-29 08:49 | -33.65658 | 152.82761 | 40391 ft | 289 kts | 333° |
| 2026-04-29 08:49 | -33.64128 | 152.81348 | 40410 ft | 275 kts | 299° |
| 2026-04-29 08:50 | -33.63585 | 152.79231 | 40425 ft | 265 kts | 265° |
| 2026-04-29 08:50 | -33.64161 | 152.77164 | 40428 ft | 264 kts | 239° |
| 2026-04-29 08:50 | -33.65062 | 152.75225 | 40446 ft | 267 kts | 239° |
| 2026-04-29 08:50 | -33.66013 | 152.73288 | 40438 ft | 271 kts | 239° |
| 2026-04-29 08:51 | -33.66976 | 152.71327 | 40430 ft | 273 kts | 239° |
| 2026-04-29 08:51 | -33.67926 | 152.69334 | 40430 ft | 275 kts | 240° |
| 2026-04-29 08:51 | -33.68604 | 152.67223 | 40395 ft | 277 kts | 259° |
| 2026-04-29 08:51 | -33.68756 | 152.64918 | 40412 ft | 278 kts | 267° |
| 2026-04-29 08:52 | -33.68600 | 152.62596 | 40423 ft | 280 kts | 272° |
| 2026-04-29 08:52 | -33.68415 | 152.60264 | 40423 ft | 280 kts | 269° |
| 2026-04-29 08:52 | -33.68358 | 152.57922 | 40425 ft | 281 kts | 268° |
| 2026-04-29 08:52 | -33.68254 | 152.55571 | 40422 ft | 283 kts | 270° |
| 2026-04-29 08:53 | -33.68122 | 152.53213 | 40427 ft | 283 kts | 270° |
| 2026-04-29 08:53 | -33.68018 | 152.50847 | 40427 ft | 284 kts | 269° |
| 2026-04-29 08:53 | -33.67917 | 152.48476 | 40427 ft | 285 kts | 270° |
| 2026-04-29 08:53 | -33.67798 | 152.46103 | 40430 ft | 285 kts | 270° |
| 2026-04-29 08:54 | -33.67685 | 152.43730 | 40424 ft | 285 kts | 270° |
| 2026-04-29 08:54 | -33.67578 | 152.41379 | 40423 ft | 285 kts | 269° |
| 2026-04-29 08:54 | -33.67461 | 152.38967 | 40424 ft | 285 kts | 270° |
| 2026-04-29 08:54 | -33.67347 | 152.36591 | 40430 ft | 286 kts | 270° |
| 2026-04-29 08:55 | -33.67236 | 152.34234 | 40426 ft | 286 kts | 270° |
| 2026-04-29 08:55 | -33.67120 | 152.31852 | 40426 ft | 286 kts | 270° |
| 2026-04-29 08:55 | -33.67006 | 152.29468 | 40428 ft | 286 kts | 270° |
| 2026-04-29 08:55 | -33.66891 | 152.27085 | 40426 ft | 286 kts | 270° |
| 2026-04-29 08:56 | -33.66773 | 152.24703 | 40423 ft | 286 kts | 270° |
| 2026-04-29 08:56 | -33.66659 | 152.22322 | 40422 ft | 286 kts | 270° |
| 2026-04-29 08:56 | -33.66542 | 152.19940 | 40423 ft | 286 kts | 270° |
| 2026-04-29 08:56 | -33.66423 | 152.17558 | 40425 ft | 286 kts | 270° |
| 2026-04-29 08:57 | -33.66307 | 152.15178 | 40424 ft | 286 kts | 270° |
| 2026-04-29 08:57 | -33.66189 | 152.12792 | 40425 ft | 286 kts | 270° |
| 2026-04-29 08:57 | -33.66068 | 152.10408 | 40425 ft | 286 kts | 270° |
| 2026-04-29 08:57 | -33.65951 | 152.08025 | 40432 ft | 286 kts | 270° |
| 2026-04-29 08:58 | -33.65906 | 152.05650 | 40399 ft | 282 kts | 261° |
| 2026-04-29 08:58 | -33.66746 | 152.03619 | 40399 ft | 279 kts | 227° |
| 2026-04-29 08:58 | -33.68451 | 152.02520 | 40417 ft | 287 kts | 195° |
| 2026-04-29 08:58 | -33.70462 | 152.02772 | 40427 ft | 303 kts | 163° |
| 2026-04-29 08:59 | -33.72152 | 152.04345 | 40435 ft | 319 kts | 134° |
| 2026-04-29 08:59 | -33.75019 | 152.08248 | 40362 ft | 304 kts | 159° |
| 2026-04-29 08:59 | -33.76967 | 152.09138 | 40401 ft | 298 kts | 168° |
| 2026-04-29 09:00 | -33.78912 | 152.10016 | 40366 ft | 305 kts | 156° |
| 2026-04-29 09:00 | -33.80423 | 152.11821 | 40375 ft | 315 kts | 132° |
| 2026-04-29 09:00 | -33.81567 | 152.14083 | 40395 ft | 324 kts | 113° |
| 2026-04-29 09:00 | -33.81821 | 152.16808 | 40421 ft | 331 kts | 92° |
| 2026-04-29 09:01 | -33.81751 | 152.19583 | 40439 ft | 333 kts | 89° |
| 2026-04-29 09:01 | -33.81547 | 152.25138 | 40434 ft | 333 kts | 96° |
| 2026-04-29 09:02 | -33.81636 | 152.30740 | 40435 ft | 336 kts | 92° |
| 2026-04-29 09:02 | -33.81680 | 152.36369 | 40435 ft | 337 kts | 94° |
| 2026-04-29 09:03 | -33.81697 | 152.42013 | 40430 ft | 338 kts | 93° |
| 2026-04-29 09:03 | -33.81730 | 152.47669 | 40430 ft | 338 kts | 93° |
| 2026-04-29 09:04 | -33.81755 | 152.53287 | 40436 ft | 338 kts | 94° |
| 2026-04-29 09:04 | -33.81779 | 152.58947 | 40434 ft | 338 kts | 93° |
| 2026-04-29 09:05 | -33.81799 | 152.64610 | 40434 ft | 338 kts | 93° |
| 2026-04-29 09:05 | -33.81816 | 152.70278 | 40435 ft | 338 kts | 94° |
| 2026-04-29 09:05 | -33.81570 | 152.73079 | 40392 ft | 342 kts | 73° |
| 2026-04-29 09:06 | -33.80449 | 152.75592 | 40411 ft | 341 kts | 57° |
| 2026-04-29 09:06 | -33.78906 | 152.77709 | 40402 ft | 337 kts | 33° |
| 2026-04-29 09:06 | -33.76813 | 152.78917 | 40421 ft | 332 kts | 17° |
| 2026-04-29 09:07 | -33.72463 | 152.80711 | 40435 ft | 333 kts | 14° |
| 2026-04-29 09:07 | -33.68169 | 152.82880 | 40433 ft | 335 kts | 20° |
| 2026-04-29 09:08 | -33.63835 | 152.84966 | 40429 ft | 336 kts | 20° |
| 2026-04-29 09:08 | -33.59508 | 152.87123 | 40431 ft | 337 kts | 19° |
| 2026-04-29 09:09 | -33.55163 | 152.89273 | 40429 ft | 338 kts | 19° |
| 2026-04-29 09:09 | -33.50805 | 152.91420 | 40429 ft | 338 kts | 19° |
| 2026-04-29 09:10 | -33.46444 | 152.93572 | 40428 ft | 339 kts | 19° |
| 2026-04-29 09:10 | -33.42107 | 152.95707 | 40432 ft | 339 kts | 19° |
| 2026-04-29 09:11 | -33.37736 | 152.97805 | 40404 ft | 335 kts | 14° |
| 2026-04-29 09:11 | -33.35443 | 152.97849 | 40389 ft | 322 kts | 341° |
| 2026-04-29 09:11 | -33.33564 | 152.96646 | 40408 ft | 305 kts | 311° |
| 2026-04-29 09:11 | -33.32515 | 152.94555 | 40419 ft | 289 kts | 279° |
| 2026-04-29 09:12 | -33.32606 | 152.92234 | 40429 ft | 279 kts | 248° |
| 2026-04-29 09:12 | -33.33768 | 152.90417 | 40437 ft | 277 kts | 220° |
| 2026-04-29 09:12 | -33.35270 | 152.88957 | 40434 ft | 278 kts | 219° |
| 2026-04-29 09:12 | -33.36809 | 152.87550 | 40432 ft | 279 kts | 218° |
| 2026-04-29 09:13 | -33.38362 | 152.86147 | 40438 ft | 280 kts | 219° |
| 2026-04-29 09:13 | -33.39909 | 152.84724 | 40429 ft | 280 kts | 219° |
| 2026-04-29 09:13 | -33.41440 | 152.83279 | 40429 ft | 280 kts | 220° |
| 2026-04-29 09:13 | -33.42933 | 152.81818 | 40432 ft | 279 kts | 221° |
| 2026-04-29 09:14 | -33.44039 | 152.79944 | 40405 ft | 277 kts | 243° |
| 2026-04-29 09:14 | -33.44827 | 152.77845 | 40417 ft | 277 kts | 251° |
| 2026-04-29 09:14 | -33.45368 | 152.75630 | 40431 ft | 278 kts | 252° |
| 2026-04-29 09:14 | -33.45963 | 152.73431 | 40426 ft | 277 kts | 248° |
| 2026-04-29 09:15 | -33.46631 | 152.71263 | 40444 ft | 278 kts | 249° |
| 2026-04-29 09:15 | -33.47246 | 152.69056 | 40430 ft | 279 kts | 250° |
| 2026-04-29 09:15 | -33.47863 | 152.66847 | 40429 ft | 280 kts | 249° |
| 2026-04-29 09:15 | -33.48500 | 152.64644 | 40427 ft | 280 kts | 249° |
| 2026-04-29 09:16 | -33.49133 | 152.62432 | 40427 ft | 281 kts | 250° |
| 2026-04-29 09:16 | -33.49757 | 152.60220 | 40437 ft | 281 kts | 249° |
| 2026-04-29 09:16 | -33.50385 | 152.58000 | 40428 ft | 281 kts | 249° |
| 2026-04-29 09:16 | -33.51019 | 152.55788 | 40428 ft | 281 kts | 250° |
| 2026-04-29 09:17 | -33.51647 | 152.53570 | 40429 ft | 281 kts | 249° |
| 2026-04-29 09:17 | -33.52272 | 152.51357 | 40427 ft | 281 kts | 250° |
| 2026-04-29 09:17 | -33.52903 | 152.49139 | 40430 ft | 281 kts | 250° |
| 2026-04-29 09:17 | -33.53524 | 152.46946 | 40430 ft | 281 kts | 249° |
| 2026-04-29 09:18 | -33.54150 | 152.44723 | 40435 ft | 281 kts | 250° |
| 2026-04-29 09:18 | -33.54778 | 152.42510 | 40426 ft | 281 kts | 250° |
| 2026-04-29 09:18 | -33.55405 | 152.40288 | 40428 ft | 281 kts | 250° |
| 2026-04-29 09:18 | -33.56031 | 152.38063 | 40434 ft | 281 kts | 250° |
| 2026-04-29 09:19 | -33.56659 | 152.35843 | 40430 ft | 281 kts | 250° |
| 2026-04-29 09:19 | -33.57286 | 152.33617 | 40438 ft | 281 kts | 250° |
| 2026-04-29 09:19 | -33.57910 | 152.31392 | 40430 ft | 281 kts | 250° |
| 2026-04-29 09:19 | -33.58538 | 152.29170 | 40441 ft | 281 kts | 250° |
| 2026-04-29 09:20 | -33.59163 | 152.26945 | 40431 ft | 281 kts | 250° |
| 2026-04-29 09:20 | -33.59786 | 152.24719 | 40429 ft | 281 kts | 250° |
| 2026-04-29 09:20 | -33.60413 | 152.22494 | 40429 ft | 281 kts | 250° |
| 2026-04-29 09:20 | -33.61037 | 152.20267 | 40430 ft | 281 kts | 250° |
| 2026-04-29 09:21 | -33.61655 | 152.18054 | 40435 ft | 278 kts | 250° |
| 2026-04-29 09:21 | -33.62270 | 152.15866 | 40436 ft | 276 kts | 250° |
| 2026-04-29 09:21 | -33.62870 | 152.13717 | 40444 ft | 274 kts | 250° |
| 2026-04-29 09:21 | -33.63474 | 152.11555 | 40431 ft | 272 kts | 250° |
| 2026-04-29 09:22 | -33.64077 | 152.09406 | 40432 ft | 271 kts | 250° |
| 2026-04-29 09:22 | -33.64673 | 152.07264 | 40438 ft | 271 kts | 250° |
| 2026-04-29 09:22 | -33.65447 | 152.05234 | 40390 ft | 268 kts | 232° |
| 2026-04-29 09:22 | -33.66427 | 152.04327 | 40398 ft | 272 kts | 209° |
| 2026-04-29 09:23 | -33.68309 | 152.04025 | 40421 ft | 284 kts | 175° |
| 2026-04-29 09:23 | -33.70135 | 152.05019 | 40429 ft | 294 kts | 152° |
| 2026-04-29 09:23 | -33.71880 | 152.06299 | 40441 ft | 294 kts | 155° |
| 2026-04-29 09:23 | -33.73672 | 152.07457 | 40424 ft | 289 kts | 162° |
| 2026-04-29 09:24 | -33.75554 | 152.08277 | 40433 ft | 287 kts | 167° |
| 2026-04-29 09:24 | -33.77433 | 152.09123 | 40438 ft | 290 kts | 163° |
| 2026-04-29 09:24 | -33.79196 | 152.10326 | 40398 ft | 301 kts | 144° |
| 2026-04-29 09:24 | -33.80530 | 152.12302 | 40418 ft | 305 kts | 131° |
| 2026-04-29 09:25 | -33.81554 | 152.14539 | 40405 ft | 315 kts | 110° |
| 2026-04-29 09:25 | -33.81568 | 152.17195 | 40425 ft | 325 kts | 78° |
| 2026-04-29 09:25 | -33.80508 | 152.19585 | 40431 ft | 327 kts | 47° |
| 2026-04-29 09:25 | -33.78655 | 152.21082 | 40434 ft | 321 kts | 16° |
| 2026-04-29 09:26 | -33.76490 | 152.21377 | 40428 ft | 308 kts | 346° |
| 2026-04-29 09:26 | -33.74619 | 152.20408 | 40434 ft | 292 kts | 314° |
| 2026-04-29 09:26 | -33.73522 | 152.18478 | 40444 ft | 275 kts | 282° |
| 2026-04-29 09:26 | -33.73254 | 152.16236 | 40436 ft | 270 kts | 272° |
| 2026-04-29 09:27 | -33.73029 | 152.13995 | 40431 ft | 271 kts | 274° |
| 2026-04-29 09:27 | -33.72165 | 152.11938 | 40399 ft | 284 kts | 303° |
| 2026-04-29 09:27 | -33.70824 | 152.10186 | 40433 ft | 286 kts | 309° |
| 2026-04-29 09:27 | -33.69400 | 152.08499 | 40433 ft | 286 kts | 309° |
| 2026-04-29 09:28 | -33.68113 | 152.06688 | 40430 ft | 285 kts | 303° |
| 2026-04-29 09:28 | -33.66895 | 152.04830 | 40395 ft | 279 kts | 294° |
| 2026-04-29 09:28 | -33.66584 | 152.02655 | 40401 ft | 266 kts | 259° |
| 2026-04-29 09:28 | -33.67405 | 152.00732 | 40432 ft | 264 kts | 225° |
| 2026-04-29 09:29 | -33.69072 | 151.99790 | 40439 ft | 275 kts | 191° |
| 2026-04-29 09:29 | -33.72472 | 152.01945 | 40445 ft | 309 kts | 127° |
| 2026-04-29 09:29 | -33.73407 | 152.04298 | 40440 ft | 312 kts | 119° |
| 2026-04-29 09:30 | -33.75600 | 152.08680 | 40400 ft | 298 kts | 148° |
| 2026-04-29 09:30 | -33.77440 | 152.09617 | 40423 ft | 282 kts | 174° |
| 2026-04-29 09:30 | -33.79287 | 152.10353 | 40365 ft | 293 kts | 156° |
| 2026-04-29 09:31 | -33.80744 | 152.12134 | 40378 ft | 303 kts | 132° |
| 2026-04-29 09:31 | -33.81734 | 152.14385 | 40406 ft | 314 kts | 107° |
| 2026-04-29 09:31 | -33.81842 | 152.17026 | 40430 ft | 319 kts | 90° |
| 2026-04-29 09:31 | -33.81717 | 152.19704 | 40437 ft | 321 kts | 88° |
| 2026-04-29 09:32 | -33.81566 | 152.25081 | 40437 ft | 321 kts | 96° |
| 2026-04-29 09:32 | -33.81624 | 152.30474 | 40440 ft | 323 kts | 92° |
| 2026-04-29 09:33 | -33.81676 | 152.35859 | 40436 ft | 324 kts | 94° |
| 2026-04-29 09:33 | -33.81691 | 152.41296 | 40440 ft | 325 kts | 94° |
| 2026-04-29 09:34 | -33.81725 | 152.46741 | 40437 ft | 326 kts | 94° |
| 2026-04-29 09:34 | -33.81751 | 152.52200 | 40441 ft | 326 kts | 94° |
| 2026-04-29 09:35 | -33.81773 | 152.57656 | 40440 ft | 326 kts | 93° |
| 2026-04-29 09:35 | -33.81793 | 152.63104 | 40438 ft | 326 kts | 94° |
| 2026-04-29 09:36 | -33.81812 | 152.68520 | 40441 ft | 326 kts | 94° |
| 2026-04-29 09:36 | -33.81234 | 152.73880 | 40400 ft | 330 kts | 62° |
| 2026-04-29 09:37 | -33.78380 | 152.78047 | 40411 ft | 323 kts | 26° |
| 2026-04-29 09:37 | -33.74221 | 152.79979 | 40438 ft | 320 kts | 14° |
| 2026-04-29 09:38 | -33.70039 | 152.81894 | 40435 ft | 323 kts | 22° |
| 2026-04-29 09:38 | -33.65881 | 152.83954 | 40435 ft | 323 kts | 18° |
| 2026-04-29 09:39 | -33.61718 | 152.86042 | 40437 ft | 325 kts | 19° |
| 2026-04-29 09:39 | -33.57555 | 152.88082 | 40441 ft | 326 kts | 19° |
| 2026-04-29 09:40 | -33.53355 | 152.90165 | 40436 ft | 326 kts | 19° |
| 2026-04-29 09:40 | -33.49156 | 152.92236 | 40439 ft | 326 kts | 19° |
| 2026-04-29 09:41 | -33.47034 | 152.92997 | 40388 ft | 318 kts | 360° |
| 2026-04-29 09:41 | -33.44935 | 152.92525 | 40407 ft | 302 kts | 328° |
| 2026-04-29 09:41 | -33.43432 | 152.90925 | 40423 ft | 284 kts | 296° |
| 2026-04-29 09:41 | -33.42959 | 152.88734 | 40444 ft | 270 kts | 263° |
| 2026-04-29 09:42 | -33.43641 | 152.86714 | 40437 ft | 265 kts | 231° |
| 2026-04-29 09:42 | -33.44913 | 152.85133 | 40439 ft | 264 kts | 226° |
| 2026-04-29 09:42 | -33.46242 | 152.83598 | 40440 ft | 265 kts | 224° |
| 2026-04-29 09:42 | -33.47583 | 152.82079 | 40444 ft | 266 kts | 224° |
| 2026-04-29 09:43 | -33.48923 | 152.80538 | 40440 ft | 267 kts | 225° |
| 2026-04-29 09:43 | -33.50248 | 152.78978 | 40440 ft | 267 kts | 226° |
| 2026-04-29 09:43 | -33.51543 | 152.77388 | 40425 ft | 266 kts | 228° |
| 2026-04-29 09:43 | -33.52376 | 152.75425 | 40412 ft | 265 kts | 249° |
| 2026-04-29 09:44 | -33.52895 | 152.73343 | 40428 ft | 265 kts | 257° |
| 2026-04-29 09:44 | -33.53217 | 152.71134 | 40432 ft | 266 kts | 258° |
| 2026-04-29 09:44 | -33.53607 | 152.68994 | 40432 ft | 266 kts | 253° |
| 2026-04-29 09:44 | -33.54055 | 152.66812 | 40434 ft | 267 kts | 255° |
| 2026-04-29 09:45 | -33.54445 | 152.64657 | 40435 ft | 268 kts | 256° |
| 2026-04-29 09:45 | -33.54843 | 152.62476 | 40433 ft | 268 kts | 255° |
| 2026-04-29 09:45 | -33.55257 | 152.60296 | 40433 ft | 269 kts | 255° |
| 2026-04-29 09:45 | -33.55671 | 152.58101 | 40450 ft | 269 kts | 255° |
| 2026-04-29 09:46 | -33.56076 | 152.55907 | 40445 ft | 269 kts | 255° |
| 2026-04-29 09:46 | -33.56482 | 152.53713 | 40436 ft | 269 kts | 255° |
| 2026-04-29 09:46 | -33.56894 | 152.51520 | 40436 ft | 270 kts | 255° |
| 2026-04-29 09:46 | -33.57302 | 152.49329 | 40446 ft | 270 kts | 255° |
| 2026-04-29 09:47 | -33.57708 | 152.47128 | 40435 ft | 270 kts | 255° |
| 2026-04-29 09:47 | -33.58117 | 152.44931 | 40434 ft | 270 kts | 255° |
| 2026-04-29 09:47 | -33.58525 | 152.42734 | 40438 ft | 270 kts | 255° |
| 2026-04-29 09:47 | -33.58930 | 152.40531 | 40438 ft | 270 kts | 255° |
| 2026-04-29 09:48 | -33.59333 | 152.38364 | 40440 ft | 270 kts | 255° |
| 2026-04-29 09:48 | -33.59739 | 152.36170 | 40434 ft | 270 kts | 255° |
| 2026-04-29 09:48 | -33.60143 | 152.33969 | 40437 ft | 270 kts | 255° |
| 2026-04-29 09:48 | -33.60550 | 152.31774 | 40436 ft | 270 kts | 255° |
| 2026-04-29 09:49 | -33.60954 | 152.29576 | 40434 ft | 270 kts | 255° |
| 2026-04-29 09:49 | -33.61358 | 152.27369 | 40437 ft | 270 kts | 255° |
| 2026-04-29 09:49 | -33.61765 | 152.25165 | 40441 ft | 270 kts | 255° |
| 2026-04-29 09:49 | -33.62169 | 152.22968 | 40436 ft | 270 kts | 255° |
| 2026-04-29 09:50 | -33.62571 | 152.20767 | 40443 ft | 270 kts | 255° |
| 2026-04-29 09:50 | -33.62974 | 152.18568 | 40444 ft | 270 kts | 255° |
| 2026-04-29 09:50 | -33.63378 | 152.16367 | 40447 ft | 270 kts | 255° |
| 2026-04-29 09:50 | -33.63779 | 152.14162 | 40444 ft | 270 kts | 255° |
| 2026-04-29 09:51 | -33.64177 | 152.11993 | 40435 ft | 270 kts | 256° |
| 2026-04-29 09:51 | -33.64457 | 152.09770 | 40400 ft | 272 kts | 268° |
| 2026-04-29 09:51 | -33.63738 | 152.07637 | 40409 ft | 287 kts | 303° |
| 2026-04-29 09:51 | -33.62061 | 152.06259 | 40424 ft | 303 kts | 334° |
| 2026-04-29 09:52 | -33.57962 | 152.04960 | 40449 ft | 306 kts | 342° |
| 2026-04-29 09:52 | -33.53753 | 152.03967 | 40418 ft | 312 kts | 351° |
| 2026-04-29 09:53 | -33.51620 | 152.04409 | 40419 ft | 320 kts | 15° |
| 2026-04-29 09:53 | -33.49529 | 152.05313 | 40430 ft | 321 kts | 18° |
| 2026-04-29 09:53 | -33.45302 | 152.07186 | 40064 ft | 332 kts | 12° |
| 2026-04-29 09:54 | -33.42997 | 152.07884 | 39271 ft | 353 kts | 11° |
| 2026-04-29 09:54 | -33.40595 | 152.08777 | 38201 ft | 370 kts | 16° |
| 2026-04-29 09:54 | -33.38102 | 152.09694 | 37133 ft | 377 kts | 13° |
| 2026-04-29 09:54 | -33.35565 | 152.10558 | 36121 ft | 380 kts | 14° |
| 2026-04-29 09:55 | -33.33039 | 152.11484 | 35156 ft | 380 kts | 15° |
| 2026-04-29 09:55 | -33.30513 | 152.12383 | 34183 ft | 377 kts | 14° |
| 2026-04-29 09:55 | -33.28009 | 152.13267 | 33131 ft | 375 kts | 15° |
| 2026-04-29 09:55 | -33.25519 | 152.14111 | 32096 ft | 368 kts | 12° |
| 2026-04-29 09:56 | -33.22987 | 152.14246 | 31202 ft | 358 kts | 2° |
| 2026-04-29 09:56 | -33.20603 | 152.14865 | 30813 ft | 347 kts | 19° |
| 2026-04-29 09:56 | -33.18482 | 152.16169 | 30496 ft | 338 kts | 35° |
| 2026-04-29 09:56 | -33.16641 | 152.17818 | 30241 ft | 326 kts | 34° |
| 2026-04-29 09:57 | -33.14507 | 152.18676 | 29928 ft | 323 kts | 11° |
| 2026-04-29 09:57 | -33.12298 | 152.19168 | 29680 ft | 322 kts | 8° |
| 2026-04-29 09:57 | -33.10028 | 152.19582 | 28648 ft | 337 kts | 8° |
| 2026-04-29 09:57 | -33.07683 | 152.19305 | 27578 ft | 347 kts | 340° |
| 2026-04-29 09:58 | -33.05725 | 152.17780 | 26960 ft | 339 kts | 311° |
| 2026-04-29 09:58 | -33.04606 | 152.15413 | 26665 ft | 322 kts | 285° |
| 2026-04-29 09:58 | -33.03733 | 152.12947 | 26453 ft | 330 kts | 300° |
| 2026-04-29 09:58 | -33.02365 | 152.10754 | 26442 ft | 331 kts | 304° |
| 2026-04-29 09:59 | -33.00958 | 152.08552 | 26440 ft | 334 kts | 306° |
| 2026-04-29 09:59 | -32.99514 | 152.06366 | 26350 ft | 339 kts | 307° |
| 2026-04-29 09:59 | -32.97991 | 152.04105 | 25431 ft | 360 kts | 308° |
| 2026-04-29 09:59 | -32.96606 | 152.01661 | 24490 ft | 337 kts | 300° |
| 2026-04-29 10:00 | -32.95430 | 151.99357 | 23506 ft | 319 kts | 300° |
| 2026-04-29 10:00 | -32.94180 | 151.97200 | 22455 ft | 314 kts | 304° |
| 2026-04-29 10:00 | -32.92973 | 151.95090 | 21458 ft | 310 kts | 302° |
| 2026-04-29 10:00 | -32.91804 | 151.92945 | 20465 ft | 307 kts | 302° |
| 2026-04-29 10:01 | -32.90622 | 151.90846 | 19529 ft | 304 kts | 304° |
| 2026-04-29 10:01 | -32.89448 | 151.88772 | 18589 ft | 300 kts | 304° |
| 2026-04-29 10:01 | -32.88297 | 151.86721 | 17538 ft | 296 kts | 304° |
| 2026-04-29 10:01 | -32.87160 | 151.84693 | 16533 ft | 293 kts | 304° |
| 2026-04-29 10:02 | -32.86034 | 151.82689 | 15553 ft | 290 kts | 304° |
| 2026-04-29 10:02 | -32.84914 | 151.80705 | 14601 ft | 287 kts | 304° |
| 2026-04-29 10:02 | -32.83808 | 151.78740 | 13603 ft | 285 kts | 305° |
| 2026-04-29 10:02 | -32.82713 | 151.76793 | 12577 ft | 283 kts | 304° |
| 2026-04-29 10:03 | -32.81615 | 151.74849 | 11579 ft | 282 kts | 305° |
| 2026-04-29 10:03 | -32.80533 | 151.72922 | 10625 ft | 273 kts | 305° |
| 2026-04-29 10:03 | -32.79486 | 151.71069 | 9612 ft | 267 kts | 305° |
| 2026-04-29 10:03 | -32.78456 | 151.69253 | 8598 ft | 263 kts | 305° |
| 2026-04-29 10:04 | -32.77444 | 151.67453 | 7609 ft | 261 kts | 305° |
| 2026-04-29 10:04 | -32.76448 | 151.65694 | 6644 ft | 258 kts | 305° |
| 2026-04-29 10:04 | -32.75450 | 151.63924 | 5635 ft | 257 kts | 305° |
| 2026-04-29 10:04 | -32.74457 | 151.62165 | 4628 ft | 256 kts | 305° |
| 2026-04-29 10:05 | -32.73467 | 151.60419 | 3812 ft | 251 kts | 306° |
| 2026-04-29 10:05 | -32.72439 | 151.58836 | 3358 ft | 232 kts | 320° |
| 2026-04-29 10:05 | -32.71010 | 151.58221 | 3132 ft | 213 kts | 2° |
| 2026-04-29 10:05 | -32.69692 | 151.58771 | 3060 ft | 196 kts | 37° |
| 2026-04-29 10:06 | -32.68682 | 151.59778 | 3073 ft | 190 kts | 46° |
| 2026-04-29 10:06 | -32.67749 | 151.60885 | 3079 ft | 189 kts | 51° |
| 2026-04-29 10:06 | -32.66778 | 151.61931 | 3060 ft | 189 kts | 44° |
| 2026-04-29 10:06 | -32.65818 | 151.62965 | 3052 ft | 183 kts | 54° |
| 2026-04-29 10:07 | -32.65668 | 151.64411 | 3005 ft | 185 kts | 105° |
| 2026-04-29 10:07 | -32.66464 | 151.65603 | 3022 ft | 185 kts | 136° |
| 2026-04-29 10:07 | -32.67394 | 151.66674 | 3056 ft | 187 kts | 134° |
| 2026-04-29 10:07 | -32.68355 | 151.67736 | 3072 ft | 189 kts | 134° |
| 2026-04-29 10:08 | -32.69259 | 151.68897 | 2923 ft | 196 kts | 129° |
| 2026-04-29 10:08 | -32.70130 | 151.70186 | 2637 ft | 202 kts | 126° |
| 2026-04-29 10:08 | -32.71007 | 151.71512 | 2362 ft | 205 kts | 126° |
| 2026-04-29 10:08 | -32.71915 | 151.72801 | 2093 ft | 207 kts | 127° |
| 2026-04-29 10:09 | -32.72850 | 151.74103 | 1810 ft | 207 kts | 127° |
| 2026-04-29 10:09 | -32.73784 | 151.75416 | 1530 ft | 208 kts | 127° |
| 2026-04-29 10:09 | -32.74725 | 151.76725 | 1270 ft | 208 kts | 128° |
| 2026-04-29 10:09 | -32.75676 | 151.78033 | 987 ft | 209 kts | 129° |
| 2026-04-29 10:10 | -32.76631 | 151.79346 | 699 ft | 205 kts | 129° |
| 2026-04-29 10:10 | -32.77156 | 151.80083 | 537 ft | 153 kts | 129° |
| 2026-04-29 10:10 | -32.77786 | 151.80962 | 344 ft | 133 kts | 130° |
| 2026-04-29 10:10 | -32.78344 | 151.81750 | 182 ft | 118 kts | 130° |
| 2026-04-29 10:11 | -32.78867 | 151.82487 | 36 ft | 116 kts | 130° |
| 2026-04-29 10:11 | -32.79336 | 151.83127 | 37 ft | 86 kts | 130° |
| 2026-04-29 10:11 | -32.79764 | 151.83731 | 29 ft | 53 kts | 129° |
| 2026-04-29 10:11 | -32.79838 | 151.83884 | 31 ft | 25 kts | 72° |
| 2026-04-29 10:12 | -32.79784 | 151.84041 | 32 ft | 20 kts | 128° |
| 2026-04-29 10:12 | -32.79762 | 151.84182 | 29 ft | 13 kts | 51° |
| 2026-04-29 10:12 | -32.79763 | 151.84258 | 29 ft | 8 kts | 239° |
| 2026-04-29 10:12 | -32.79766 | 151.84250 | 29 ft | 0 kts | 243° |